Time;durP1;ratioP1;P1;durP2;ratioP2;P2;SDS_P1;SDS_P2;PMS_P1;PMS_P2;Temp;Humidity;BMP_temperature;BMP_pressure;BME280_temperature;BME280_humidity;BME280_pressure;Samples;Min_cycle;Max_cycle;Signal;HPM_P1;HPM_P2
2021/12/20 00:01:37;;;;;;;4.27;2.40;;;;;;;4.31;100.00;98629.03;4955371;28;20107;-59
2021/12/20 00:04:02;;;;;;;3.27;2.67;;;;;;;4.25;100.00;98640.00;4958286;28;20390;-59
2021/12/20 00:06:28;;;;;;;3.40;3.10;;;;;;;4.24;100.00;98660.31;4956957;28;20038;-60
2021/12/20 00:08:53;;;;;;;6.33;3.23;;;;;;;4.17;100.00;98649.25;4958328;28;20501;-61
2021/12/20 00:11:19;;;;;;;4.37;2.67;;;;;;;4.25;100.00;98639.16;4952734;28;20481;-59
2021/12/20 00:13:44;;;;;;;4.17;2.73;;;;;;;4.26;100.00;98653.53;4951495;28;20727;-59
2021/12/20 00:16:10;;;;;;;3.60;2.63;;;;;;;4.25;100.00;98640.00;4957031;28;20631;-59
2021/12/20 00:18:35;;;;;;;3.37;2.70;;;;;;;4.15;100.00;98638.25;4956356;28;20031;-61
2021/12/20 00:21:00;;;;;;;4.57;2.47;;;;;;;4.23;100.00;98644.22;4957989;28;20046;-61
2021/12/20 00:23:26;;;;;;;4.23;3.43;;;;;;;4.18;100.00;98650.09;4973277;28;20035;-61
2021/12/20 00:25:52;;;;;;;5.93;3.03;;;;;;;4.16;100.00;98645.00;4971705;28;20184;-60
2021/12/20 00:28:19;;;;;;;3.90;3.00;;;;;;;4.30;100.00;98652.72;4976144;28;20452;-60
2021/12/20 00:30:45;;;;;;;3.47;3.05;;;;;;;4.07;100.00;98672.88;4974714;28;20112;-60
2021/12/20 00:33:11;;;;;;;2.93;2.13;;;;;;;4.28;100.00;98657.81;4973286;28;20038;-60
2021/12/20 00:35:36;;;;;;;3.63;3.00;;;;;;;4.34;100.00;98649.34;4976595;28;20022;-60
2021/12/20 00:40:48;;;;;;;4.17;3.10;;;;;;;4.39;100.00;98673.94;4972402;28;20074;-61
2021/12/20 00:43:14;;;;;;;3.23;2.50;;;;;;;4.39;100.00;98653.63;4973352;28;20113;-61
2021/12/20 00:45:40;;;;;;;5.97;3.00;;;;;;;4.40;100.00;98657.00;4974094;28;20140;-61
2021/12/20 00:48:06;;;;;;;2.90;2.40;;;;;;;4.35;100.00;98674.75;4978007;28;20038;-59
2021/12/20 00:50:31;;;;;;;3.53;3.07;;;;;;;4.38;100.00;98686.59;4975125;28;20030;-60
2021/12/20 00:52:58;;;;;;;3.57;2.47;;;;;;;4.36;100.00;98665.47;4978350;28;20065;-60
2021/12/20 00:55:25;;;;;;;3.57;2.70;;;;;;;4.36;100.00;98673.91;4975292;28;20366;-61
2021/12/20 00:57:53;;;;;;;4.43;3.10;;;;;;;4.34;100.00;98684.88;4974958;28;20139;-61
2021/12/20 01:00:22;;;;;;;4.17;2.90;;;;;;;4.41;100.00;98667.16;4972330;28;20477;-61
2021/12/20 01:02:49;;;;;;;5.93;3.40;;;;;;;4.45;100.00;98683.28;4992249;28;20468;-61
2021/12/20 01:05:15;;;;;;;5.50;3.27;;;;;;;4.33;100.00;98698.44;4992553;28;20037;-58
2021/12/20 01:07:41;;;;;;;5.60;3.83;;;;;;;4.36;100.00;98681.53;4989573;28;20034;-60
2021/12/20 01:10:09;;;;;;;5.27;3.23;;;;;;;4.34;100.00;98685.72;4989452;28;20557;-60
2021/12/20 01:12:47;;;;;;;6.77;4.63;;;;;;;4.26;100.00;98679.75;4997388;28;20044;-60
2021/12/20 01:15:27;;;;;;;7.50;4.50;;;;;;;4.32;100.00;98697.59;4995339;28;20031;-61
2021/12/20 01:17:52;;;;;;;48.73;44.10;;;;;;;4.19;100.00;98680.56;4992148;28;20684;-60
2021/12/20 01:20:18;;;;;;;6.97;4.33;;;;;;;4.16;100.00;98682.25;4997951;28;20302;-57
2021/12/20 01:22:45;;;;;;;7.87;4.43;;;;;;;4.25;100.00;98679.75;4997944;28;20035;-60
2021/12/20 01:25:12;;;;;;;4.97;3.17;;;;;;;4.22;100.00;98700.88;4992308;28;20038;-60
2021/12/20 01:27:38;;;;;;;4.80;3.20;;;;;;;4.16;100.00;98700.00;4992437;28;20038;-61
2021/12/20 01:30:06;;;;;;;15.97;14.60;;;;;;;4.16;100.00;98690.69;4992039;28;20168;-60
2021/12/20 01:32:32;;;;;;;5.87;3.53;;;;;;;4.13;100.00;98685.59;4997629;28;20124;-60
2021/12/20 01:34:57;;;;;;;7.83;4.37;;;;;;;4.17;100.00;98684.78;4992211;28;20176;-60
2021/12/20 01:37:22;;;;;;;6.87;4.10;;;;;;;4.12;100.00;98699.97;4992944;28;20674;-59
2021/12/20 01:39:48;;;;;;;6.33;3.40;;;;;;;4.06;100.00;98701.59;4991291;28;20038;-58
2021/12/20 01:42:18;;;;;;;7.60;3.80;;;;;;;4.00;100.00;98704.94;4993491;28;20085;-61
2021/12/20 01:44:45;;;;;;;5.33;3.30;;;;;;;3.91;100.00;98707.38;4990599;28;20064;-59
2021/12/20 01:47:12;;;;;;;4.57;3.33;;;;;;;3.78;100.00;98687.84;4992534;28;20030;-57
2021/12/20 01:49:50;;;;;;;7.40;4.00;;;;;;;3.77;100.00;98686.16;4995999;28;20076;-59
2021/12/20 01:52:20;;;;;;;5.20;4.03;;;;;;;3.62;100.00;98694.47;4999647;28;20030;-60
2021/12/20 01:54:45;;;;;;;5.07;3.63;;;;;;;3.56;100.00;98706.25;4993972;28;20034;-61
2021/12/20 01:57:10;;;;;;;4.73;3.33;;;;;;;3.56;100.00;98678.34;4995163;28;20030;-60
2021/12/20 01:59:39;;;;;;;5.03;3.37;;;;;;;3.60;100.00;98707.97;4998756;28;20120;-60
2021/12/20 02:02:04;;;;;;;4.57;3.30;;;;;;;3.63;100.00;98688.56;5001372;28;20046;-61
2021/12/20 02:04:30;;;;;;;5.03;3.10;;;;;;;3.54;100.00;98673.28;4994887;28;20100;-60
2021/12/20 02:06:56;;;;;;;6.87;4.67;;;;;;;3.51;100.00;98673.25;4995117;28;20034;-61
2021/12/20 02:09:22;;;;;;;6.77;3.60;;;;;;;3.50;100.00;98691.81;4996059;28;20023;-59
2021/12/20 02:11:49;;;;;;;7.57;4.20;;;;;;;3.51;100.00;98687.59;4995024;28;20157;-60
2021/12/20 02:14:17;;;;;;;6.50;3.73;;;;;;;3.49;100.00;98694.31;4994536;28;20030;-61
2021/12/20 02:16:43;;;;;;;7.57;3.93;;;;;;;3.41;100.00;98681.59;4997703;28;20041;-59
2021/12/20 02:19:11;;;;;;;4.27;3.50;;;;;;;3.50;100.00;98696.88;4999734;28;20516;-60
2021/12/20 02:21:37;;;;;;;8.17;4.87;;;;;;;3.55;100.00;98695.25;4995437;28;20418;-60
2021/12/20 02:24:03;;;;;;;4.47;3.67;;;;;;;3.50;100.00;98708.69;4992569;28;20030;-58
2021/12/20 02:26:29;;;;;;;8.60;4.43;;;;;;;3.42;100.00;98717.91;4992682;28;20044;-60
2021/12/20 02:28:57;;;;;;;5.70;3.50;;;;;;;3.41;100.00;98721.28;4995865;28;20031;-60
2021/12/20 02:39:20;;;;;;;4.33;3.43;;;;;;;3.37;100.00;98725.47;4994282;28;20045;-60
2021/12/20 02:41:46;;;;;;;8.63;5.10;;;;;;;3.36;100.00;98741.50;4995251;28;20025;-60
2021/12/20 02:44:17;;;;;;;5.17;3.73;;;;;;;3.40;100.00;98730.56;4991222;28;20038;-61
2021/12/20 02:46:52;;;;;;;6.43;3.87;;;;;;;3.46;100.00;98755.13;4991205;28;20040;-61
2021/12/20 02:49:23;;;;;;;7.97;4.82;;;;;;;3.42;100.00;98749.16;4996092;28;20111;-60
2021/12/20 02:51:51;;;;;;;7.17;3.83;;;;;;;3.42;100.00;98761.00;4992645;28;20050;-61
2021/12/20 02:54:19;;;;;;;8.27;4.13;;;;;;;3.39;100.00;98771.09;4995907;28;20026;-60
2021/12/20 02:56:46;;;;;;;6.43;4.43;;;;;;;3.34;100.00;98770.19;4997312;28;20038;-59
2021/12/20 02:59:11;;;;;;;6.23;4.17;;;;;;;3.34;100.00;98760.91;4993659;28;20034;-61
2021/12/20 03:01:40;;;;;;;7.33;4.13;;;;;;;3.25;100.00;98780.22;4992764;28;20125;-60
2021/12/20 03:04:06;;;;;;;5.60;3.50;;;;;;;3.24;100.00;98781.88;4993004;28;20038;-61
2021/12/20 03:06:37;;;;;;;4.87;3.77;;;;;;;3.24;100.00;98786.94;4994854;28;20396;-59
2021/12/20 03:09:05;;;;;;;5.93;4.07;;;;;;;3.30;100.00;98784.50;4991422;28;20117;-61
2021/12/20 03:11:30;;;;;;;5.37;3.37;;;;;;;3.22;100.00;98791.16;4988480;28;20030;-60
2021/12/20 03:14:08;;;;;;;4.73;2.90;;;;;;;3.37;100.00;98783.75;4994333;28;20027;-61
2021/12/20 03:16:34;;;;;;;5.10;3.20;;;;;;;3.43;100.00;98800.72;4994221;28;20041;-59
2021/12/20 03:19:05;;;;;;;4.73;3.27;;;;;;;3.36;100.00;98794.69;4994889;28;20034;-59
2021/12/20 03:21:31;;;;;;;4.03;2.70;;;;;;;3.32;100.00;98812.38;4992722;28;20396;-61
2021/12/20 03:23:57;;;;;;;3.73;3.20;;;;;;;3.27;100.00;98817.38;4992619;28;20037;-60
2021/12/20 03:26:23;;;;;;;6.57;3.57;;;;;;;3.28;100.00;98834.28;4996723;28;20030;-60
2021/12/20 03:28:49;;;;;;;7.10;2.63;;;;;;;3.34;100.00;98833.53;4989527;28;20701;-61
2021/12/20 03:31:15;;;;;;;5.20;3.17;;;;;;;3.33;100.00;98835.22;4994845;28;20097;-58
2021/12/20 03:33:40;;;;;;;7.27;4.03;;;;;;;3.25;100.00;98846.06;4991646;28;20030;-61
2021/12/20 03:36:06;;;;;;;6.07;3.67;;;;;;;3.01;100.00;98849.94;4990995;28;20037;-61
2021/12/20 03:38:31;;;;;;;4.93;2.53;;;;;;;2.74;100.00;98844.50;4989883;28;20022;-62
2021/12/20 03:40:56;;;;;;;3.47;2.70;;;;;;;2.79;100.00;98859.75;4993103;28;20096;-59
2021/12/20 03:43:24;;;;;;;2.90;2.23;;;;;;;2.75;100.00;98864.78;4992317;28;20093;-60
2021/12/20 03:45:56;;;;;;;3.47;2.07;;;;;;;2.47;100.00;98866.81;4992781;28;20436;-60
2021/12/20 03:48:22;;;;;;;2.90;2.07;;;;;;;2.46;100.00;98863.44;4992435;28;20088;-61
2021/12/20 03:50:48;;;;;;;4.27;2.07;;;;;;;2.39;100.00;98869.22;4992224;28;20046;-60
2021/12/20 03:53:13;;;;;;;1.33;1.23;;;;;;;2.35;100.00;98862.41;4990589;28;20060;-61
2021/12/20 03:55:39;;;;;;;2.43;0.93;;;;;;;2.39;100.00;98864.16;4994756;28;20054;-60
2021/12/20 03:58:04;;;;;;;1.00;0.80;;;;;;;2.39;100.00;98865.84;4993529;28;20025;-61
2021/12/20 04:00:30;;;;;;;0.90;0.90;;;;;;;2.38;100.00;98861.63;4991618;28;20029;-61
2021/12/20 04:02:55;;;;;;;0.93;0.70;;;;;;;2.40;100.00;98858.28;4994717;28;20057;-60
2021/12/20 04:05:21;;;;;;;0.67;0.60;;;;;;;2.44;100.00;98859.19;4991388;28;20030;-61
2021/12/20 04:07:46;;;;;;;4.03;0.67;;;;;;;2.43;100.00;98853.28;4987950;28;20038;-60
2021/12/20 04:10:11;;;;;;;1.00;1.00;;;;;;;2.40;100.00;98850.69;4990620;28;20026;-60
2021/12/20 04:12:37;;;;;;;0.87;0.63;;;;;;;2.46;100.00;98862.63;4992982;28;20073;-61
2021/12/20 04:15:05;;;;;;;0.60;0.60;;;;;;;2.36;100.00;98861.59;4988064;28;20785;-58
2021/12/20 04:17:30;;;;;;;0.70;0.70;;;;;;;2.37;100.00;98863.31;4988149;28;20035;-60
2021/12/20 04:19:56;;;;;;;0.80;0.80;;;;;;;2.34;100.00;98870.81;4991513;28;20026;-61
2021/12/20 04:22:22;;;;;;;2.20;1.43;;;;;;;2.32;100.00;98877.56;4992386;28;20507;-59
2021/12/20 04:24:47;;;;;;;1.17;0.60;;;;;;;2.30;100.00;98876.66;4989717;28;20611;-60
2021/12/20 04:27:12;;;;;;;0.80;0.60;;;;;;;2.34;100.00;98869.97;4985738;28;20112;-59
2021/12/20 04:29:38;;;;;;;0.70;0.70;;;;;;;2.31;100.00;98868.25;4994770;28;20520;-61
2021/12/20 04:32:04;;;;;;;0.97;0.60;;;;;;;2.32;100.00;98869.09;4992971;28;20152;-60
2021/12/20 04:34:30;;;;;;;0.90;0.87;;;;;;;2.37;100.00;98863.31;4989249;28;20109;-61
2021/12/20 04:36:56;;;;;;;2.63;0.70;;;;;;;2.43;100.00;98878.56;4988487;28;20037;-62
2021/12/20 04:39:26;;;;;;;1.77;0.70;;;;;;;2.37;100.00;98877.63;4991807;28;20034;-60
2021/12/20 04:41:52;;;;;;;1.07;0.83;;;;;;;2.38;100.00;98876.81;4992370;28;20029;-60
2021/12/20 04:44:17;;;;;;;1.67;1.20;;;;;;;2.40;100.00;98865.88;4992820;28;20369;-62
2021/12/20 04:46:43;;;;;;;0.70;0.70;;;;;;;2.43;100.00;98860.88;4989456;28;20045;-60
2021/12/20 04:49:08;;;;;;;1.60;1.20;;;;;;;2.50;100.00;98875.34;4990690;28;20033;-61
2021/12/20 04:51:33;;;;;;;0.80;0.80;;;;;;;2.54;100.00;98882.16;4990701;28;20041;-59
2021/12/20 04:53:59;;;;;;;1.43;1.10;;;;;;;2.56;100.00;98888.06;4986194;28;20729;-60
2021/12/20 04:56:24;;;;;;;1.37;1.00;;;;;;;2.58;100.00;98886.44;4985246;28;20043;-61
2021/12/20 04:58:50;;;;;;;2.70;1.23;;;;;;;2.53;100.00;98882.13;4996585;28;20026;-60
2021/12/20 05:01:15;;;;;;;1.30;0.93;;;;;;;2.47;100.00;98865.16;4997415;28;20141;-61
2021/12/20 05:03:41;;;;;;;2.67;1.20;;;;;;;2.56;100.00;98877.09;4988775;28;20875;-58
2021/12/20 05:06:07;;;;;;;2.10;1.20;;;;;;;2.46;100.00;98887.91;4992977;28;20031;-60
2021/12/20 05:08:35;;;;;;;1.80;1.27;;;;;;;2.46;100.00;98898.84;4991102;28;20498;-59
2021/12/20 05:11:04;;;;;;;3.10;1.10;;;;;;;2.51;100.00;98894.72;5000793;28;20125;-60
2021/12/20 05:13:31;;;;;;;1.07;0.70;;;;;;;2.49;100.00;98881.22;4993253;28;20076;-61
2021/12/20 05:15:56;;;;;;;1.47;0.97;;;;;;;2.50;100.00;98887.13;4996105;28;20054;-58
2021/12/20 05:18:22;;;;;;;2.30;1.10;;;;;;;2.58;100.00;98896.56;4993389;28;20057;-61
2021/12/20 05:20:47;;;;;;;2.53;1.20;;;;;;;2.49;100.00;98904.00;4995558;28;20515;-58
2021/12/20 05:23:12;;;;;;;1.60;0.90;;;;;;;2.45;100.00;98898.84;4984920;28;20035;-59
2021/12/20 05:25:39;;;;;;;3.97;1.60;;;;;;;2.43;100.00;98914.00;4992424;28;20447;-59
2021/12/20 05:28:05;;;;;;;2.47;0.77;;;;;;;2.38;100.00;98902.09;4989201;28;20409;-58
2021/12/20 05:30:31;;;;;;;3.90;1.23;;;;;;;2.43;100.00;98908.94;4996832;28;20030;-60
2021/12/20 05:32:57;;;;;;;1.70;0.97;;;;;;;2.45;100.00;98919.94;4990309;28;20052;-60
2021/12/20 05:35:23;;;;;;;1.47;0.83;;;;;;;2.52;100.00;98920.91;4997230;28;20030;-61
2021/12/20 05:37:49;;;;;;;2.73;1.37;;;;;;;2.49;100.00;98911.59;5003767;28;20108;-61
2021/12/20 05:40:16;;;;;;;2.77;0.80;;;;;;;2.48;100.00;98919.13;4998065;28;20137;-59
2021/12/20 05:42:42;;;;;;;1.47;0.90;;;;;;;2.55;100.00;98921.78;4998069;28;20033;-61
2021/12/20 05:45:09;;;;;;;4.93;1.87;;;;;;;2.52;100.00;98923.44;4994841;28;20038;-60
2021/12/20 05:47:34;;;;;;;0.90;0.90;;;;;;;2.53;100.00;98918.41;4998004;28;20129;-59
2021/12/20 05:50:00;;;;;;;1.20;0.93;;;;;;;2.58;100.00;98926.06;4996657;28;20097;-61
2021/12/20 05:52:25;;;;;;;1.33;0.90;;;;;;;2.57;100.00;98931.94;4998353;28;20048;-60
2021/12/20 05:54:51;;;;;;;1.30;1.20;;;;;;;2.58;100.00;98926.94;4998268;28;20105;-61
2021/12/20 05:57:16;;;;;;;1.23;1.10;;;;;;;2.56;100.00;98926.03;5000101;28;20783;-61
2021/12/20 05:59:42;;;;;;;3.03;1.20;;;;;;;2.59;100.00;98932.84;4996230;28;20772;-61
2021/12/20 06:02:07;;;;;;;2.33;1.40;;;;;;;2.56;100.00;98928.56;4998829;28;20068;-62
2021/12/20 06:04:33;;;;;;;2.33;1.10;;;;;;;2.53;100.00;98947.91;4972546;28;20501;-63
2021/12/20 06:06:59;;;;;;;1.97;1.10;;;;;;;2.61;100.00;98946.38;4998697;28;20029;-60
2021/12/20 06:09:24;;;;;;;1.30;1.13;;;;;;;2.60;100.00;98942.97;4995003;28;20935;-62
2021/12/20 06:11:50;;;;;;;2.83;1.07;;;;;;;2.72;100.00;98957.50;4977702;28;20050;-60
2021/12/20 06:14:15;;;;;;;3.70;2.30;;;;;;;2.72;100.00;98945.72;4995614;28;20121;-59
2021/12/20 06:16:41;;;;;;;3.93;2.00;;;;;;;2.65;100.00;98951.50;4993061;28;20101;-58
2021/12/20 06:19:07;;;;;;;2.07;1.87;;;;;;;2.58;100.00;98942.13;4992478;28;20030;-59
2021/12/20 06:21:34;;;;;;;2.60;1.50;;;;;;;2.59;100.00;98946.31;4990632;28;20224;-60
2021/12/20 06:24:00;;;;;;;1.73;0.93;;;;;;;2.57;100.00;98950.53;4980998;28;20030;-59
2021/12/20 06:26:25;;;;;;;1.60;1.47;;;;;;;2.56;100.00;98953.00;4993265;28;20708;-57
2021/12/20 06:28:52;;;;;;;3.13;1.70;;;;;;;2.52;100.00;98953.78;4995194;28;20030;-58
2021/12/20 06:31:17;;;;;;;3.20;1.73;;;;;;;2.49;100.00;98951.22;4999584;28;20038;-60
2021/12/20 06:33:44;;;;;;;2.33;1.10;;;;;;;2.47;100.00;98980.69;4999064;28;20112;-58
2021/12/20 06:36:09;;;;;;;2.07;1.87;;;;;;;2.48;100.00;98969.75;4993364;28;20030;-59
2021/12/20 06:38:43;;;;;;;2.30;1.53;;;;;;;2.57;100.00;98963.19;4991998;28;20026;-58
2021/12/20 06:41:09;;;;;;;2.80;2.03;;;;;;;2.56;100.00;98958.94;4978679;28;20057;-59
2021/12/20 06:43:35;;;;;;;3.93;1.60;;;;;;;2.52;100.00;98966.44;4997024;28;20034;-60
2021/12/20 06:46:00;;;;;;;4.57;1.73;;;;;;;2.48;100.00;98979.88;4994337;28;20510;-58
2021/12/20 06:48:26;;;;;;;2.60;1.40;;;;;;;2.43;100.00;98986.50;4991430;28;20026;-59
2021/12/20 06:50:52;;;;;;;3.17;1.57;;;;;;;2.48;100.00;98979.88;4992578;28;20171;-56
2021/12/20 06:53:17;;;;;;;2.43;1.70;;;;;;;2.48;100.00;98984.91;4994566;28;20551;-57
2021/12/20 06:55:43;;;;;;;3.03;1.70;;;;;;;2.43;100.00;98991.56;4993186;28;20840;-60
2021/12/20 06:58:08;;;;;;;1.30;1.10;;;;;;;2.45;100.00;98995.00;4989919;28;20034;-56
2021/12/20 07:00:34;;;;;;;1.03;1.00;;;;;;;2.46;100.00;98997.53;4973427;28;20112;-58
2021/12/20 07:03:00;;;;;;;2.73;1.07;;;;;;;2.39;100.00;98990.66;4990105;28;20145;-61
2021/12/20 07:05:26;;;;;;;2.10;1.50;;;;;;;2.38;100.00;98988.94;4992973;28;20551;-57
2021/12/20 07:07:52;;;;;;;2.47;1.30;;;;;;;2.39;100.00;98982.22;4991149;28;20617;-60
2021/12/20 07:10:18;;;;;;;1.83;1.60;;;;;;;2.42;100.00;98988.19;4991805;28;20057;-58
2021/12/20 07:12:43;;;;;;;3.30;1.20;;;;;;;2.42;100.00;98987.34;4993021;28;20040;-61
2021/12/20 07:15:12;;;;;;;2.43;2.13;;;;;;;2.48;100.00;98993.38;4992118;28;20022;-61
2021/12/20 07:17:38;;;;;;;1.80;1.50;;;;;;;2.42;100.00;98993.25;4990094;28;20096;-57
2021/12/20 07:20:05;;;;;;;1.80;1.13;;;;;;;2.42;100.00;98980.59;4992102;28;20022;-59
2021/12/20 07:22:30;;;;;;;4.00;1.50;;;;;;;2.50;100.00;98973.16;4991450;28;20033;-56
2021/12/20 07:24:56;;;;;;;2.57;1.37;;;;;;;2.47;100.00;98952.84;4991329;28;21006;-56
2021/12/20 07:27:21;;;;;;;1.57;1.20;;;;;;;2.51;100.00;98965.59;4988583;28;20042;-59
2021/12/20 07:29:47;;;;;;;1.13;1.10;;;;;;;2.55;100.00;98991.78;4991708;28;20102;-56
2021/12/20 07:32:12;;;;;;;1.43;1.33;;;;;;;2.49;100.00;98982.44;4993882;28;20476;-56
2021/12/20 07:34:38;;;;;;;2.17;1.40;;;;;;;2.58;100.00;98992.72;4989927;28;20476;-59
2021/12/20 07:37:05;;;;;;;3.27;1.20;;;;;;;2.58;100.00;98985.13;4989763;28;20395;-58
2021/12/20 07:39:31;;;;;;;2.90;1.43;;;;;;;2.63;100.00;98983.50;4992133;28;20046;-59
2021/12/20 07:41:56;;;;;;;3.80;1.40;;;;;;;2.63;100.00;98970.03;4991574;28;20025;-60
2021/12/20 07:44:23;;;;;;;3.40;1.73;;;;;;;2.66;100.00;98976.00;4988858;28;20029;-60
2021/12/20 07:46:49;;;;;;;2.97;1.43;;;;;;;2.69;100.00;98990.38;4988295;28;20088;-58
2021/12/20 07:49:14;;;;;;;1.57;1.47;;;;;;;2.71;100.00;99004.78;4991090;28;20535;-58
2021/12/20 07:51:41;;;;;;;4.10;1.00;;;;;;;2.72;100.00;99001.41;4992015;28;20034;-58
2021/12/20 07:54:06;;;;;;;1.20;1.10;;;;;;;2.74;100.00;98997.22;4988143;28;20310;-60
2021/12/20 07:56:32;;;;;;;3.47;1.30;;;;;;;2.76;100.00;98998.09;4988795;28;20069;-60
2021/12/20 07:58:57;;;;;;;2.10;1.13;;;;;;;2.78;100.00;98990.53;4992968;28;20113;-58
2021/12/20 08:01:23;;;;;;;2.47;1.13;;;;;;;2.78;100.00;98995.59;4992583;28;20362;-60
2021/12/20 08:03:48;;;;;;;3.63;0.90;;;;;;;2.81;100.00;98992.25;4987468;28;20139;-59
2021/12/20 08:06:14;;;;;;;3.47;1.00;;;;;;;2.85;100.00;98999.09;4990184;28;20122;-58
2021/12/20 08:08:40;;;;;;;6.43;1.20;;;;;;;2.90;100.00;98993.28;4992048;28;20701;-58
2021/12/20 08:11:06;;;;;;;1.30;1.20;;;;;;;2.91;100.00;98997.53;4992242;28;20065;-57
2021/12/20 08:13:32;;;;;;;5.43;1.30;;;;;;;2.96;100.00;99002.66;4988125;28;20453;-57
2021/12/20 08:15:58;;;;;;;3.50;1.93;;;;;;;2.97;100.00;99009.44;4991001;28;20407;-57
2021/12/20 08:18:23;;;;;;;2.47;1.13;;;;;;;2.95;100.00;99008.56;4991910;28;20035;-57
2021/12/20 08:20:49;;;;;;;3.30;1.00;;;;;;;2.95;100.00;99006.03;4992712;28;20109;-59
2021/12/20 08:23:14;;;;;;;2.27;0.87;;;;;;;3.01;100.00;99006.13;4988738;28;20112;-55
2021/12/20 08:25:40;;;;;;;4.00;1.10;;;;;;;2.99;100.00;99015.38;4989842;28;20315;-55
2021/12/20 08:28:09;;;;;;;3.87;2.10;;;;;;;3.09;100.00;99007.97;4992488;28;20057;-59
2021/12/20 08:30:35;;;;;;;1.10;0.83;;;;;;;2.99;100.00;99016.22;4993874;28;20033;-61
2021/12/20 08:33:01;;;;;;;3.37;0.90;;;;;;;3.05;100.00;99025.63;4991198;28;20234;-57
2021/12/20 08:35:27;;;;;;;1.43;1.27;;;;;;;3.01;100.00;99012.03;4991758;28;20070;-59
2021/12/20 08:37:58;;;;;;;2.57;1.47;;;;;;;3.04;99.77;99014.63;4992774;28;20084;-60
2021/12/20 08:40:24;;;;;;;2.57;1.30;;;;;;;2.99;100.00;99020.44;4993886;28;20476;-60
2021/12/20 08:42:49;;;;;;;4.80;1.50;;;;;;;3.09;98.12;99020.63;4988277;28;20045;-60
2021/12/20 08:45:16;;;;;;;1.13;1.03;;;;;;;3.02;96.13;99046.66;4992517;28;20030;-57
2021/12/20 08:47:42;;;;;;;0.93;0.93;;;;;;;3.08;93.18;99030.72;4993296;28;20038;-59
2021/12/20 08:50:14;;;;;;;2.10;1.20;;;;;;;3.20;99.11;99024.19;4991017;28;20045;-57
2021/12/20 08:52:39;;;;;;;2.00;1.00;;;;;;;3.16;98.58;99019.03;4986768;28;20092;-59
2021/12/20 08:55:06;;;;;;;1.27;1.03;;;;;;;3.14;95.40;99018.19;4991303;28;20041;-61
2021/12/20 08:57:32;;;;;;;2.40;1.13;;;;;;;3.17;94.93;99028.34;4988982;28;20149;-59
2021/12/20 08:59:57;;;;;;;2.10;1.03;;;;;;;3.14;95.64;99024.06;4987462;28;20161;-59
2021/12/20 09:02:23;;;;;;;4.40;2.03;;;;;;;3.29;97.11;99020.94;4988476;28;20042;-57
2021/12/20 09:04:48;;;;;;;1.70;1.00;;;;;;;3.20;95.58;99028.41;4996592;28;20038;-59
2021/12/20 09:07:17;;;;;;;2.37;0.70;;;;;;;3.32;98.18;99027.72;4990520;28;20109;-60
2021/12/20 09:09:46;;;;;;;1.10;1.00;;;;;;;3.41;97.92;99022.81;4991494;28;20457;-59
2021/12/20 09:12:14;;;;;;;2.10;0.80;;;;;;;3.41;96.69;99023.69;4992907;28;20281;-60
2021/12/20 09:14:41;;;;;;;2.60;0.90;;;;;;;3.32;91.93;99037.88;4995825;28;20102;-59
2021/12/20 09:17:06;;;;;;;0.90;0.90;;;;;;;3.29;94.13;99020.09;4999150;28;20140;-59
2021/12/20 09:19:34;;;;;;;4.10;1.00;;;;;;;3.35;95.38;99048.06;4993838;28;20492;-60
2021/12/20 09:22:00;;;;;;;1.13;0.90;;;;;;;3.39;96.07;99027.03;4990946;28;20029;-57
2021/12/20 09:24:25;;;;;;;1.17;1.00;;;;;;;3.41;97.53;99041.41;4996065;28;20463;-59
2021/12/20 09:26:51;;;;;;;5.33;0.87;;;;;;;3.32;94.86;99030.28;4992129;28;20041;-59
2021/12/20 09:29:16;;;;;;;3.40;1.03;;;;;;;3.36;97.89;99040.47;4995921;28;20288;-60
2021/12/20 09:31:42;;;;;;;1.60;1.27;;;;;;;3.34;97.78;99051.44;5001776;28;20121;-58
2021/12/20 09:34:08;;;;;;;1.20;1.00;;;;;;;3.35;96.64;99045.53;4995463;28;20558;-58
2021/12/20 09:36:33;;;;;;;1.37;1.00;;;;;;;3.36;96.68;99040.47;4996880;28;20034;-60
2021/12/20 09:39:00;;;;;;;6.13;1.00;;;;;;;3.43;98.22;99039.78;5001443;28;20464;-60
2021/12/20 09:44:06;;;;;;;1.27;1.17;;;;;;;3.45;95.93;99038.09;4992963;28;20037;-58
2021/12/20 09:46:32;;;;;;;2.30;0.70;;;;;;;3.51;97.83;99045.81;4994842;28;20101;-60
2021/12/20 09:48:58;;;;;;;3.03;1.50;;;;;;;3.73;99.72;99048.66;4995356;28;20684;-60
2021/12/20 09:51:25;;;;;;;2.77;1.20;;;;;;;3.56;99.27;99051.81;4997796;28;20030;-60
2021/12/20 09:53:51;;;;;;;1.70;1.10;;;;;;;3.72;100.00;99031.75;4989730;28;20356;-58
2021/12/20 09:56:20;;;;;;;1.13;0.80;;;;;;;3.63;95.62;99053.59;4991096;28;20026;-59
2021/12/20 09:58:50;;;;;;;1.50;0.90;;;;;;;3.61;98.24;99040.03;4992983;28;20077;-60
2021/12/20 10:01:19;;;;;;;1.50;1.40;;;;;;;3.72;100.00;99039.34;4993055;28;20496;-56
2021/12/20 10:03:45;;;;;;;1.10;1.00;;;;;;;3.64;100.00;99032.50;4993627;28;20135;-58
2021/12/20 10:06:10;;;;;;;1.80;1.00;;;;;;;3.77;100.00;99055.50;4995087;28;20116;-56
2021/12/20 10:08:48;;;;;;;1.47;1.37;;;;;;;3.82;100.00;99064.03;4995014;28;20034;-55
2021/12/20 10:11:23;;;;;;;2.37;1.63;;;;;;;3.85;98.26;99052.22;4995563;28;20526;-59
2021/12/20 10:13:50;;;;;;;5.93;1.65;;;;;;;3.79;94.82;99039.44;4991086;28;20105;-59
2021/12/20 10:16:23;;;;;;;2.87;1.93;;;;;;;3.88;96.91;99051.41;4994221;28;20447;-58
2021/12/20 10:18:48;;;;;;;3.73;1.60;;;;;;;3.89;98.91;99041.31;4997155;28;20023;-61
2021/12/20 10:21:15;;;;;;;3.77;1.73;;;;;;;3.81;97.79;99053.03;4991947;28;20114;-59
2021/12/20 10:23:48;;;;;;;13.60;2.23;;;;;;;4.02;100.00;99057.53;4990487;28;20043;-61
2021/12/20 10:26:20;;;;;;;4.93;1.57;;;;;;;4.03;99.90;99044.84;4998801;28;20117;-61
2021/12/20 10:28:47;;;;;;;4.57;1.47;;;;;;;4.03;98.96;99039.78;4993254;28;20370;-57
2021/12/20 10:31:17;;;;;;;2.97;1.50;;;;;;;3.85;95.21;99069.13;4991521;28;20714;-58
2021/12/20 10:33:52;;;;;;;2.90;2.00;;;;;;;3.85;97.87;99033.63;4992855;28;20520;-58
2021/12/20 10:36:18;;;;;;;6.33;2.10;;;;;;;3.91;96.34;99054.84;4993613;28;20034;-59
2021/12/20 10:38:46;;;;;;;2.23;1.43;;;;;;;4.00;98.61;99052.44;4994592;28;20444;-61
2021/12/20 10:41:34;;;;;;;3.27;1.47;;;;;;;4.07;97.97;99061.00;4990946;28;20030;-59
2021/12/20 10:44:03;;;;;;;5.80;2.40;;;;;;;4.04;95.16;99044.03;4992245;28;20122;-61
2021/12/20 10:46:34;;;;;;;3.43;1.77;;;;;;;4.08;94.31;99055.06;4994160;28;20033;-61
2021/12/20 10:49:08;;;;;;;1.37;1.20;;;;;;;4.19;92.56;99060.31;4991936;28;20070;-60
2021/12/20 10:51:38;;;;;;;5.50;1.67;;;;;;;4.34;90.93;99070.63;4989279;28;20600;-62
2021/12/20 10:54:09;;;;;;;2.80;1.23;;;;;;;4.26;89.34;99093.38;4994431;28;20509;-61
2021/12/20 10:56:54;;;;;;;1.27;1.10;;;;;;;4.24;90.32;99048.53;4993169;28;20251;-61
2021/12/20 10:59:22;;;;;;;4.43;1.50;;;;;;;4.50;91.49;99054.75;4990596;28;20126;-60
2021/12/20 11:04:57;;;;;;;1.87;1.43;;;;;;;4.19;88.34;99053.53;4929215;29;20063;-61
2021/12/20 11:10:04;;;;;;;5.37;1.73;;;;;;;4.34;91.74;99043.56;4921029;29;20486;-59
2021/12/20 11:12:32;;;;;;;2.00;1.50;;;;;;;4.39;90.92;99038.56;4929610;29;20055;-59
2021/12/20 11:15:02;;;;;;;2.40;1.40;;;;;;;4.41;90.37;99050.41;4923127;29;20035;-57
2021/12/20 11:17:30;;;;;;;5.33;1.67;;;;;;;4.44;87.63;99053.00;4930002;29;20071;-59
2021/12/20 11:19:57;;;;;;;1.43;1.30;;;;;;;4.56;85.19;99037.91;4928917;29;20075;-55
2021/12/20 11:22:24;;;;;;;2.10;1.43;;;;;;;4.66;87.83;99027.88;4922159;29;20036;-57
2021/12/20 11:25:03;;;;;;;2.00;1.63;;;;;;;4.52;87.96;99030.25;4936196;29;20031;-60
2021/12/20 11:27:42;;;;;;;3.87;1.70;;;;;;;4.44;86.43;99036.94;4922158;29;20035;-59
2021/12/20 11:30:10;;;;;;;2.10;1.80;;;;;;;4.54;87.41;99034.50;4923270;29;20062;-60
2021/12/20 11:32:37;;;;;;;7.83;2.17;;;;;;;4.80;87.36;99031.38;4924160;29;20103;-61
2021/12/20 11:35:02;;;;;;;5.07;1.70;;;;;;;4.84;85.11;99028.91;4927056;29;20185;-59
2021/12/20 11:37:29;;;;;;;3.60;2.03;;;;;;;4.76;85.37;99034.72;4921420;29;20049;-59
2021/12/20 11:40:00;;;;;;;2.50;2.20;;;;;;;5.02;87.32;99033.31;4987805;28;20721;-62
2021/12/20 11:42:26;;;;;;;3.50;2.13;;;;;;;5.00;87.77;99035.84;5002401;28;20107;-62
2021/12/20 11:44:57;;;;;;;6.40;2.10;;;;;;;4.97;88.56;99042.56;5000129;28;20531;-60
2021/12/20 11:47:38;;;;;;;5.93;2.70;;;;;;;4.91;90.27;99038.31;4991505;28;20594;-58
2021/12/20 11:50:05;;;;;;;2.80;2.20;;;;;;;4.80;91.08;99041.53;4992331;28;20115;-60
2021/12/20 11:52:33;;;;;;;3.50;2.03;;;;;;;4.65;89.26;99033.78;4993880;28;20108;-60